createdAt,value
2022-10-23T00:01:40.571Z,98899.75
2022-10-23T00:04:20.431Z,99303.66
2022-10-23T00:06:47.844Z,99297.66
2022-10-23T00:09:16.534Z,99288.03
2022-10-23T00:11:45.385Z,99289.34
2022-10-23T00:14:12.519Z,99278.06
2022-10-23T00:16:38.976Z,99278.22
2022-10-23T00:19:07.389Z,99268.59
2022-10-23T00:24:15.129Z,99253.75
2022-10-23T00:26:42.183Z,99247.97
2022-10-23T00:29:10.172Z,99255.97
2022-10-23T00:31:38.402Z,99252.47
2022-10-23T00:34:04.773Z,99262.47
2022-10-23T00:36:31.242Z,99264.19
2022-10-23T00:38:57.613Z,99266.84
2022-10-23T00:41:27.841Z,99261.03
2022-10-23T00:44:04.411Z,99275.34
2022-10-23T00:46:31.583Z,99272.06
2022-10-23T00:48:58.840Z,99268.22
2022-10-23T00:51:28.368Z,99262.22
2022-10-23T00:54:06.508Z,99254.25
2022-10-23T00:56:46.039Z,99247.16
2022-10-23T00:59:14.094Z,99249.63
2022-10-23T01:01:42.300Z,99242.66
2022-10-23T01:04:09.467Z,99245.66
2022-10-23T01:06:42.626Z,99239.31
2022-10-23T01:10:00.164Z,99235.69
2022-10-23T01:13:01.123Z,99255.31
2022-10-23T01:15:34.932Z,99249.69
2022-10-23T01:18:39.668Z,99239.88
2022-10-23T01:21:16.935Z,99246.34
2022-10-23T01:24:00.836Z,99250.53
2022-10-23T01:27:24.396Z,99247.03
2022-10-23T01:30:17.433Z,99244.38
2022-10-23T01:33:06.240Z,99242.38
2022-10-23T01:35:42.706Z,99238.69
2022-10-23T01:38:14.758Z,99235.00
2022-10-23T01:41:00.372Z,99232.69
2022-10-23T01:43:33.317Z,99225.84
2022-10-23T01:46:05.877Z,99231.06
2022-10-23T01:48:36.140Z,99227.88
2022-10-23T01:51:06.375Z,99219.22
2022-10-23T01:53:38.588Z,99207.91
2022-10-23T01:56:12.025Z,99213.44
2022-10-23T01:58:42.571Z,99205.44
2022-10-23T02:01:11.804Z,99213.94
2022-10-23T02:03:42.493Z,99209.44
2022-10-23T02:06:09.305Z,99204.63
2022-10-23T02:08:35.995Z,99209.75
2022-10-23T02:11:10.493Z,99211.75
2022-10-23T02:14:03.835Z,99209.63
2022-10-23T02:16:51.920Z,99200.97
2022-10-23T02:19:49.219Z,99186.00
2022-10-23T02:22:37.061Z,99175.22
2022-10-23T02:25:26.287Z,99176.25
2022-10-23T02:27:56.924Z,99174.56
2022-10-23T02:30:23.406Z,99175.91
2022-10-23T02:32:55.555Z,99177.91
2022-10-23T02:35:26.132Z,99174.97
2022-10-23T02:37:58.168Z,99167.47
2022-10-23T02:40:33.953Z,99151.50
2022-10-23T02:43:27.434Z,99163.34
2022-10-23T02:46:23.436Z,99158.34
2022-10-23T02:49:04.129Z,99152.06
2022-10-23T02:51:52.498Z,99155.53
2022-10-23T02:54:48.804Z,99140.56
2022-10-23T02:57:51.232Z,99130.44
2022-10-23T03:00:20.664Z,99122.66
2022-10-23T03:02:54.824Z,99117.13
2022-10-23T03:05:26.057Z,99120.97
2022-10-23T03:07:52.833Z,99118.50
2022-10-23T03:10:19.779Z,99112.34
2022-10-23T03:12:46.270Z,99114.81
2022-10-23T03:15:14.748Z,99123.47
2022-10-23T03:17:42.652Z,99118.50
2022-10-23T03:20:10.075Z,99111.50
2022-10-23T03:22:37.103Z,99115.16
2022-10-23T03:25:04.277Z,99115.66
2022-10-23T03:27:30.646Z,99117.69
2022-10-23T03:29:57.217Z,99114.34
2022-10-23T03:32:23.692Z,99115.34
2022-10-23T03:34:50.390Z,99110.19
2022-10-23T03:37:17.212Z,99111.22
2022-10-23T03:39:43.534Z,99109.69
2022-10-23T03:42:09.980Z,99112.47
2022-10-23T03:44:37.119Z,99107.63
2022-10-23T03:47:04.074Z,99113.44
2022-10-23T03:49:31.159Z,99111.09
2022-10-23T03:51:59.021Z,99108.22
2022-10-23T03:54:27.238Z,99102.56
2022-10-23T03:56:57.581Z,99098.88
2022-10-23T03:59:24.697Z,99106.03
2022-10-23T04:01:51.534Z,99098.03
2022-10-23T04:04:17.996Z,99103.50
2022-10-23T04:06:44.551Z,99106.00
2022-10-23T04:11:37.732Z,99096.03
2022-10-23T04:14:04.218Z,99096.66
2022-10-23T04:16:31.640Z,99108.31
2022-10-23T04:18:57.964Z,99097.66
2022-10-23T04:21:24.356Z,99107.66
2022-10-23T04:23:50.819Z,99101.97
2022-10-23T04:26:17.200Z,99114.16
2022-10-23T04:28:43.955Z,99107.38
2022-10-23T04:31:10.466Z,99107.72
2022-10-23T04:33:36.879Z,99111.03
2022-10-23T04:36:03.437Z,99119.00
2022-10-23T04:38:30.090Z,99126.84
2022-10-23T04:40:56.408Z,99125.00
2022-10-23T04:43:22.930Z,99121.31
2022-10-23T04:45:49.586Z,99120.81
2022-10-23T04:48:16.257Z,99126.25
2022-10-23T04:50:42.867Z,99124.56
2022-10-23T04:53:09.667Z,99114.94
2022-10-23T04:55:36.248Z,99115.94
2022-10-23T04:58:05.069Z,99116.44
2022-10-23T05:00:31.737Z,99119.09
2022-10-23T05:02:58.427Z,99113.41
2022-10-23T05:05:24.887Z,99118.53
2022-10-23T05:07:51.442Z,99115.88
2022-10-23T05:10:18.105Z,99110.41
2022-10-23T05:12:44.496Z,99108.75
2022-10-23T05:15:10.869Z,99103.41
2022-10-23T05:17:41.988Z,99103.78
2022-10-23T05:20:13.642Z,99103.78
2022-10-23T05:22:41.308Z,99099.28
2022-10-23T05:25:08.163Z,99093.28
2022-10-23T05:27:34.556Z,99097.94
2022-10-23T05:30:01.028Z,99089.13
2022-10-23T05:32:31.742Z,99092.63
2022-10-23T05:34:59.480Z,99101.28
2022-10-23T05:37:26.424Z,99107.63
2022-10-23T05:39:52.879Z,99109.63
2022-10-23T05:42:19.261Z,99107.41
2022-10-23T05:44:45.797Z,99106.59
2022-10-23T05:47:12.249Z,99104.94
2022-10-23T05:49:38.978Z,99097.94
2022-10-23T05:52:05.634Z,99098.44
2022-10-23T05:54:32.500Z,99099.28
2022-10-23T05:56:59.133Z,99097.59
2022-10-23T05:59:25.706Z,99094.66
2022-10-23T06:01:52.431Z,99097.13
2022-10-23T06:04:19.133Z,99088.63
2022-10-23T06:06:47.032Z,99081.63
2022-10-23T06:09:15.845Z,99075.47
2022-10-23T06:11:43.043Z,99080.78
2022-10-23T06:14:09.650Z,99076.28
2022-10-23T06:16:36.194Z,99081.63
2022-10-23T06:19:02.534Z,99080.63
2022-10-23T06:21:29.190Z,99078.59
2022-10-23T06:23:55.624Z,99067.59
2022-10-23T06:26:22.357Z,99054.28
2022-10-23T06:28:48.867Z,99046.25
2022-10-23T06:31:16.764Z,99060.03
2022-10-23T06:33:43.311Z,99064.84
2022-10-23T06:36:09.815Z,99065.47
2022-10-23T06:38:37.945Z,99072.66
2022-10-23T06:41:06.872Z,99065.47
2022-10-23T06:43:33.406Z,99061.38
2022-10-23T06:46:06.374Z,99060.34
2022-10-23T06:48:35.888Z,99054.00
2022-10-23T06:51:07.710Z,99043.00
2022-10-23T06:53:36.513Z,99050.56
2022-10-23T06:56:05.210Z,99053.31
2022-10-23T06:58:31.910Z,99048.91
2022-10-23T07:01:03.134Z,99047.00
2022-10-23T07:03:30.244Z,99041.03
2022-10-23T07:06:01.995Z,99040.59
2022-10-23T07:08:28.719Z,99039.50
2022-10-23T07:10:55.179Z,99041.50
2022-10-23T07:13:21.703Z,99016.56
2022-10-23T07:15:48.308Z,98688.72
2022-10-23T07:18:14.838Z,98686.69
2022-10-23T07:20:43.243Z,98686.72
2022-10-23T07:23:12.858Z,98699.13
2022-10-23T07:25:39.449Z,98698.59
2022-10-23T07:28:08.163Z,98695.44
2022-10-23T07:30:34.818Z,98686.78
2022-10-23T07:33:01.462Z,98692.31
2022-10-23T07:35:28.434Z,98689.50
2022-10-23T07:37:54.984Z,98685.53
2022-10-23T07:40:21.392Z,98682.00
2022-10-23T07:42:47.792Z,98678.06
2022-10-23T07:45:14.185Z,98688.19
2022-10-23T07:47:41.058Z,98695.25
2022-10-23T07:50:08.344Z,98695.88
2022-10-23T07:52:36.244Z,98693.81
2022-10-23T07:55:02.847Z,98690.16
2022-10-23T07:57:29.499Z,98693.41
2022-10-23T07:59:57.169Z,98695.91
2022-10-23T08:02:24.399Z,98693.22
2022-10-23T08:04:52.257Z,98683.56
2022-10-23T08:07:18.670Z,98670.59
2022-10-23T08:09:45.077Z,98660.13
2022-10-23T08:12:11.559Z,98653.09
2022-10-23T08:14:38.106Z,98660.72
2022-10-23T08:17:05.749Z,98659.03
2022-10-23T08:19:32.240Z,98655.88
2022-10-23T08:21:59.387Z,98652.38
2022-10-23T08:24:25.946Z,98647.25
2022-10-23T08:26:52.874Z,98636.50
2022-10-23T08:29:19.282Z,98635.09
2022-10-23T08:31:45.734Z,98629.03
2022-10-23T08:34:12.449Z,98621.03
2022-10-23T08:36:38.953Z,98610.25
2022-10-23T08:39:06.408Z,98603.94
2022-10-23T08:41:42.679Z,98596.31
2022-10-23T08:44:33.478Z,98588.44
2022-10-23T08:47:19.940Z,98585.47
2022-10-23T08:49:53.778Z,98589.72
2022-10-23T08:52:37.542Z,98595.63
2022-10-23T08:55:19.281Z,98594.13
2022-10-23T08:57:53.484Z,98587.19
2022-10-23T09:00:20.304Z,98581.59
2022-10-23T09:02:50.534Z,98590.00
2022-10-23T09:05:40.314Z,98591.38
2022-10-23T09:08:25.405Z,98591.81
2022-10-23T09:11:01.821Z,98588.00
2022-10-23T09:13:50.112Z,98589.66
2022-10-23T09:16:38.155Z,98577.56
2022-10-23T09:19:22.203Z,98571.53
2022-10-23T09:21:49.987Z,98572.00
2022-10-23T09:24:20.850Z,98570.47
2022-10-23T09:26:49.175Z,98579.25
2022-10-23T09:29:35.759Z,98574.56
2022-10-23T09:32:10.773Z,98576.72
2022-10-23T09:34:37.218Z,98559.78
2022-10-23T09:37:26.029Z,98547.88
2022-10-23T09:40:16.373Z,98540.66
2022-10-23T09:43:13.655Z,98548.69
2022-10-23T09:45:40.264Z,98538.06
2022-10-23T09:48:16.624Z,98539.34
2022-10-23T09:50:50.323Z,98527.66
2022-10-23T09:53:23.005Z,98521.44
2022-10-23T09:55:54.926Z,98506.94
2022-10-23T09:58:32.504Z,98505.19
2022-10-23T10:00:58.980Z,98502.66
2022-10-23T10:03:26.947Z,98507.34
2022-10-23T10:05:58.923Z,98508.22
2022-10-23T10:08:36.360Z,98515.47
2022-10-23T10:11:12.479Z,98522.13
2022-10-23T10:13:59.557Z,98519.97
2022-10-23T10:19:22.674Z,98518.38
2022-10-23T10:22:20.360Z,98519.59
2022-10-23T10:24:59.145Z,98517.56
2022-10-23T10:27:52.536Z,98523.09
2022-10-23T10:30:24.217Z,98510.19
2022-10-23T10:33:09.388Z,98508.41
2022-10-23T10:35:48.029Z,98495.06
2022-10-23T10:38:40.681Z,98499.41
2022-10-23T10:41:19.338Z,98510.47
2022-10-23T10:44:17.081Z,98495.25
2022-10-23T10:47:08.320Z,98478.69
2022-10-23T10:49:34.623Z,98474.97
2022-10-23T10:52:25.761Z,98464.13
2022-10-23T10:55:09.221Z,98455.53
2022-10-23T10:57:41.926Z,98467.28
2022-10-23T11:00:18.906Z,98465.69
2022-10-23T11:03:09.657Z,98472.94
2022-10-23T11:05:44.515Z,98470.19
2022-10-23T11:08:20.860Z,98479.72
2022-10-23T11:10:53.231Z,98473.69
2022-10-23T11:13:35.485Z,98480.53
2022-10-23T11:16:14.048Z,98474.63
2022-10-23T11:18:51.647Z,98472.06
2022-10-23T11:21:31.967Z,98459.91
2022-10-23T11:24:16.016Z,98450.13
2022-10-23T11:27:26.908Z,98442.94
2022-10-23T11:29:56.328Z,98444.13
2022-10-23T11:33:01.877Z,98439.59
2022-10-23T11:36:06.581Z,98434.81
2022-10-23T11:38:39.160Z,98430.91
2022-10-23T11:41:21.001Z,98420.78
2022-10-23T11:43:59.522Z,98413.28
2022-10-23T11:46:25.896Z,98403.72
2022-10-23T11:48:55.622Z,98408.50
2022-10-23T11:51:42.671Z,98401.25
2022-10-23T11:54:12.593Z,98392.97
2022-10-23T11:56:53.303Z,98405.59
2022-10-23T11:59:45.736Z,98397.84
2022-10-23T12:02:31.988Z,98394.66
2022-10-23T12:05:05.436Z,98386.47
2022-10-23T12:07:37.591Z,98383.94
2022-10-23T12:10:20.715Z,98384.59
2022-10-23T12:13:02.106Z,98383.81
2022-10-23T12:15:28.703Z,98385.97
2022-10-23T12:18:16.579Z,98373.50
2022-10-23T12:20:59.001Z,98381.13
2022-10-23T12:24:12.510Z,98367.28
2022-10-23T12:26:50.317Z,98365.66
2022-10-23T12:29:46.041Z,98356.72
2022-10-23T12:32:30.611Z,98357.47
2022-10-23T12:35:18.119Z,98357.19
2022-10-23T12:38:00.892Z,98343.63
2022-10-23T12:40:27.729Z,98345.28
2022-10-23T12:42:58.409Z,98346.34
2022-10-23T12:45:31.791Z,98344.13
2022-10-23T12:47:58.269Z,98318.13
2022-10-23T12:50:30.489Z,98316.91
2022-10-23T12:53:02.419Z,98321.88
2022-10-23T12:55:48.509Z,98322.53
2022-10-23T12:58:31.562Z,98312.69
2022-10-23T13:01:07.289Z,98304.81
2022-10-23T13:03:35.128Z,98303.28
2022-10-23T13:06:03.272Z,98297.44
2022-10-23T13:08:38.913Z,98287.38
2022-10-23T13:11:05.970Z,98284.94
2022-10-23T13:13:32.842Z,98275.97
2022-10-23T13:15:59.446Z,98257.41
2022-10-23T13:18:26.132Z,98265.63
2022-10-23T13:20:52.496Z,98271.63
2022-10-23T13:23:30.471Z,98269.59
2022-10-23T13:26:02.428Z,98268.16
2022-10-23T13:28:31.774Z,98273.28
2022-10-23T13:31:18.400Z,98261.31
2022-10-23T13:33:48.053Z,98257.75
2022-10-23T13:36:17.366Z,98264.44
2022-10-23T13:38:45.052Z,98255.84
2022-10-23T13:41:19.905Z,98260.16
2022-10-23T13:43:47.626Z,98254.00
2022-10-23T13:46:15.658Z,98253.75
2022-10-23T13:48:42.296Z,98258.00
2022-10-23T13:51:21.323Z,98260.00
2022-10-23T13:53:48.576Z,98256.16
2022-10-23T13:56:17.423Z,98255.44
2022-10-23T13:58:44.063Z,98255.81
2022-10-23T14:01:22.420Z,98255.66
2022-10-23T14:03:53.370Z,98254.34
2022-10-23T14:06:20.554Z,98252.78
2022-10-23T14:08:48.600Z,98265.56
2022-10-23T14:11:17.015Z,98259.94
2022-10-23T14:13:43.866Z,98260.25
2022-10-23T14:16:13.664Z,98270.63
2022-10-23T14:18:40.262Z,98266.81
2022-10-23T14:21:08.314Z,98270.09
2022-10-23T14:23:35.294Z,98269.88
2022-10-23T14:26:03.897Z,98266.63
2022-10-23T14:28:31.763Z,98256.59
2022-10-23T14:30:58.417Z,98245.78
2022-10-23T14:33:25.020Z,98252.84
2022-10-23T14:35:51.655Z,98252.56
2022-10-23T14:38:18.166Z,98256.94
2022-10-23T14:40:44.683Z,98260.69
2022-10-23T14:43:11.234Z,98269.38
2022-10-23T14:45:37.669Z,98265.03
2022-10-23T14:48:04.283Z,98262.31
2022-10-23T14:50:36.150Z,98259.59
2022-10-23T14:53:02.958Z,98251.72
2022-10-23T14:55:30.724Z,98262.56
2022-10-23T14:57:57.904Z,98260.94
2022-10-23T15:00:24.432Z,98255.22
2022-10-23T15:02:51.291Z,98258.75
2022-10-23T15:05:18.732Z,98253.59
2022-10-23T15:07:45.202Z,98249.75
2022-10-23T15:10:11.789Z,98246.53
2022-10-23T15:12:39.198Z,98240.84
2022-10-23T15:15:06.986Z,98250.34
2022-10-23T15:17:33.889Z,98249.25
2022-10-23T15:20:01.004Z,98237.88
2022-10-23T15:22:28.133Z,98246.25
2022-10-23T15:24:54.579Z,98235.97
2022-10-23T15:27:21.034Z,98230.56
2022-10-23T15:29:48.975Z,98242.19
2022-10-23T15:32:16.128Z,98244.81
2022-10-23T15:34:45.363Z,98245.31
2022-10-23T15:37:14.402Z,98250.69
2022-10-23T15:39:40.878Z,98249.28
2022-10-23T15:42:09.938Z,98231.13
2022-10-23T15:44:36.817Z,98234.09
2022-10-23T15:47:03.469Z,98227.28
2022-10-23T15:49:29.903Z,98234.25
2022-10-23T15:51:56.886Z,98229.09
2022-10-23T15:54:25.287Z,98233.66
2022-10-23T15:56:54.270Z,98226.81
2022-10-23T15:59:23.311Z,98217.28
2022-10-23T16:01:50.698Z,98213.16
2022-10-23T16:04:17.776Z,98219.59
2022-10-23T16:06:45.071Z,98226.84
2022-10-23T16:09:15.370Z,98220.59
2022-10-23T16:11:43.375Z,98227.28
2022-10-23T16:14:14.807Z,98225.34
2022-10-23T16:16:41.807Z,98239.88
2022-10-23T16:19:09.783Z,98245.56
2022-10-23T16:21:36.833Z,98253.38
2022-10-23T16:24:06.220Z,98262.50
2022-10-23T16:26:33.361Z,98266.25
2022-10-23T16:29:02.291Z,98265.13
2022-10-23T16:31:29.318Z,98268.03
2022-10-23T16:33:59.424Z,98263.09
2022-10-23T16:36:28.117Z,98265.19
2022-10-23T16:38:54.639Z,98255.66
2022-10-23T16:41:22.310Z,98260.78
2022-10-23T16:43:48.946Z,98245.53
2022-10-23T16:46:21.264Z,98247.38
2022-10-23T16:48:49.289Z,98247.56
2022-10-23T16:51:18.525Z,98249.19
2022-10-23T16:53:46.667Z,98244.59
2022-10-23T16:56:16.158Z,98240.28
2022-10-23T16:58:43.739Z,98244.88
2022-10-23T17:01:22.250Z,98237.31
2022-10-23T17:03:50.963Z,98244.09
2022-10-23T17:06:21.387Z,98230.53
2022-10-23T17:08:47.874Z,98235.94
2022-10-23T17:11:19.181Z,98223.78
2022-10-23T17:13:50.459Z,98220.25
2022-10-23T17:16:32.149Z,98248.56
2022-10-23T17:18:58.844Z,98251.81
2022-10-23T17:21:25.885Z,98242.91
2022-10-23T17:23:53.452Z,98246.91
2022-10-23T17:26:22.027Z,98255.28
2022-10-23T17:28:49.868Z,98266.06
2022-10-23T17:31:25.185Z,98263.91
2022-10-23T17:34:01.081Z,98250.41
2022-10-23T17:36:29.985Z,98245.28
2022-10-23T17:38:56.658Z,98263.06
2022-10-23T17:41:24.361Z,98280.25
2022-10-23T17:43:50.856Z,98290.19
2022-10-23T17:46:18.953Z,98293.16
2022-10-23T17:48:45.805Z,98294.59
2022-10-23T17:51:19.614Z,98297.75
2022-10-23T17:53:48.635Z,98301.44
2022-10-23T17:56:20.982Z,98304.84
2022-10-23T17:58:52.007Z,98315.34
2022-10-23T18:01:22.308Z,98303.72
2022-10-23T18:03:48.895Z,98315.81
2022-10-23T18:06:18.931Z,98313.38
2022-10-23T18:08:46.573Z,98292.94
2022-10-23T18:11:18.218Z,98318.13
2022-10-23T18:13:45.421Z,98304.59
2022-10-23T18:16:14.462Z,98301.81
2022-10-23T18:18:42.380Z,98317.66
2022-10-23T18:21:09.222Z,98322.72
2022-10-23T18:23:36.372Z,98341.81
2022-10-23T18:26:04.491Z,98340.97
2022-10-23T18:28:31.779Z,98359.47
2022-10-23T18:30:58.799Z,98359.72
2022-10-23T18:33:25.275Z,98345.13
2022-10-23T18:35:51.724Z,98377.94
2022-10-23T18:38:18.340Z,98374.06
2022-10-23T18:40:44.769Z,98381.59
2022-10-23T18:43:15.092Z,98377.03
2022-10-23T18:45:43.552Z,98396.13
2022-10-23T18:48:10.163Z,98398.75
2022-10-23T18:50:38.454Z,98412.22
2022-10-23T18:53:05.226Z,98421.34
2022-10-23T18:57:58.209Z,98429.41
2022-10-23T19:00:24.793Z,98427.16
2022-10-23T19:02:52.450Z,98416.31
2022-10-23T19:05:19.566Z,98412.22
2022-10-23T19:07:46.635Z,98422.41
2022-10-23T19:10:14.655Z,98426.66
2022-10-23T19:12:41.901Z,98440.13
2022-10-23T19:15:09.428Z,98440.72
2022-10-23T19:17:36.963Z,98428.28
2022-10-23T19:20:10.804Z,98429.56
2022-10-23T19:22:38.948Z,98439.78
2022-10-23T19:25:10.363Z,98435.44
2022-10-23T19:27:39.610Z,98441.91
2022-10-23T19:30:07.435Z,98435.44
2022-10-23T19:32:34.345Z,98449.97
2022-10-23T19:35:00.850Z,98458.06
2022-10-23T19:37:27.485Z,98465.53
2022-10-23T19:39:53.843Z,98471.41
2022-10-23T19:42:20.306Z,98467.56
2022-10-23T19:44:46.741Z,98455.66
2022-10-23T19:47:13.887Z,98459.03
2022-10-23T19:49:40.418Z,98459.88
2022-10-23T19:52:06.804Z,98466.56
2022-10-23T19:54:33.202Z,98462.13
2022-10-23T19:56:59.770Z,98467.84
2022-10-23T19:59:26.263Z,98468.44
2022-10-23T20:01:52.832Z,98474.31
2022-10-23T20:04:19.455Z,98467.25
2022-10-23T20:06:46.904Z,98461.06
2022-10-23T20:09:14.260Z,98463.53
2022-10-23T20:11:41.402Z,98468.09
2022-10-23T20:14:08.425Z,98464.34
2022-10-23T20:16:38.317Z,98459.66
2022-10-23T20:19:08.516Z,98450.84
2022-10-23T20:21:36.678Z,98437.28
2022-10-23T20:24:03.360Z,98415.19
2022-10-23T20:26:30.792Z,98406.34
2022-10-23T20:28:57.815Z,98404.50
2022-10-23T20:31:27.321Z,98396.72
2022-10-23T20:33:54.267Z,98398.13
2022-10-23T20:36:22.775Z,98403.91
2022-10-23T20:38:49.442Z,98401.44
2022-10-23T20:41:15.844Z,98406.34
2022-10-23T20:43:42.374Z,98398.44
2022-10-23T20:46:10.615Z,98409.44
2022-10-23T20:48:38.634Z,98388.94
2022-10-23T20:51:21.203Z,98397.56
2022-10-23T20:53:48.951Z,98394.88
2022-10-23T20:56:18.365Z,98403.78
2022-10-23T20:58:45.065Z,98401.06
2022-10-23T21:01:14.534Z,98397.31
2022-10-23T21:03:41.018Z,98404.16
2022-10-23T21:06:17.637Z,98407.06
2022-10-23T21:08:46.715Z,98413.72
2022-10-23T21:11:15.746Z,98414.19
2022-10-23T21:13:44.058Z,98417.06
2022-10-23T21:16:15.364Z,98405.84
2022-10-23T21:18:45.979Z,98416.59
2022-10-23T21:21:15.234Z,98410.66
2022-10-23T21:23:41.638Z,98413.56
2022-10-23T21:26:08.146Z,98414.59
2022-10-23T21:28:34.983Z,98423.50
2022-10-23T21:31:07.726Z,98423.09
2022-10-23T21:33:36.607Z,98431.09
2022-10-23T21:36:13.628Z,98427.81
2022-10-23T21:38:42.794Z,98422.63
2022-10-23T21:41:12.720Z,98431.03
2022-10-23T21:43:39.511Z,98435.25
2022-10-23T21:46:08.041Z,98426.72
2022-10-23T21:48:34.601Z,98421.38
2022-10-23T21:51:02.761Z,98430.63
2022-10-23T21:53:29.692Z,98411.66
2022-10-23T21:56:04.353Z,98411.88
2022-10-23T21:58:32.529Z,98423.59
2022-10-23T22:01:00.264Z,98406.28
2022-10-23T22:03:26.743Z,98409.28
2022-10-23T22:05:53.292Z,98411.53
2022-10-23T22:08:20.957Z,98402.16
2022-10-23T22:10:47.402Z,98410.13
2022-10-23T22:13:14.361Z,98401.06
2022-10-23T22:15:40.759Z,98400.19
2022-10-23T22:18:07.415Z,98396.53
2022-10-23T22:20:33.935Z,98398.53
2022-10-23T22:23:00.477Z,98396.94
2022-10-23T22:25:26.863Z,98394.34
2022-10-23T22:27:53.497Z,98399.28
2022-10-23T22:30:20.119Z,98394.84
2022-10-23T22:32:47.111Z,98375.72
2022-10-23T22:35:13.802Z,98379.91
2022-10-23T22:37:40.299Z,98379.44
2022-10-23T22:40:07.210Z,98374.19
2022-10-23T22:42:33.754Z,98370.69
2022-10-23T22:45:00.146Z,98380.81
2022-10-23T22:47:29.366Z,98384.94
2022-10-23T22:49:56.115Z,98383.44
2022-10-23T22:52:22.660Z,98384.38
2022-10-23T22:54:49.078Z,98377.22
2022-10-23T22:57:15.585Z,98385.56
2022-10-23T22:59:42.513Z,98382.94
2022-10-23T23:02:11.322Z,98388.03
2022-10-23T23:04:39.163Z,98379.97
2022-10-23T23:07:08.535Z,98390.75
2022-10-23T23:09:40.659Z,98393.41
2022-10-23T23:12:08.786Z,98392.81
2022-10-23T23:14:35.513Z,98399.06
2022-10-23T23:17:02.203Z,98392.22
2022-10-23T23:19:28.626Z,98399.56
2022-10-23T23:21:56.799Z,98409.53
2022-10-23T23:24:23.435Z,98415.28
2022-10-23T23:26:50.158Z,98422.47
2022-10-23T23:29:17.316Z,98412.75
2022-10-23T23:31:44.273Z,98419.25
2022-10-23T23:34:10.910Z,98421.53
2022-10-23T23:36:37.472Z,98424.88
2022-10-23T23:41:30.807Z,98422.66
2022-10-23T23:43:59.751Z,98423.63
2022-10-23T23:46:27.537Z,98414.97
2022-10-23T23:48:53.948Z,98409.72
2022-10-23T23:51:23.046Z,98410.47
2022-10-23T23:53:50.426Z,98415.41
2022-10-23T23:56:18.624Z,98413.66
2022-10-23T23:58:44.989Z,98411.47
